Time;durP1;ratioP1;P1;durP2;ratioP2;P2;SDS_P1;SDS_P2;PMS_P1;PMS_P2;Temp;Humidity;BMP_temperature;BMP_pressure;BME280_temperature;BME280_humidity;BME280_pressure;Samples;Min_cycle;Max_cycle;Signal;HPM_P1;HPM_P2
2023/08/04 00:01:30;;;;;;;4.68;2.80;;;24.30;62.10;;;;;;6097051;28;80324;-64
2023/08/04 00:04:31;;;;;;;4.78;2.50;;;24.30;62.00;;;;;;6104565;28;82804;-65
2023/08/04 00:07:31;;;;;;;4.57;2.70;;;24.30;62.20;;;;;;6100073;28;81938;-64
2023/08/04 00:10:32;;;;;;;3.45;2.28;;;24.30;62.30;;;;;;6107136;28;81088;-65
2023/08/04 00:13:32;;;;;;;5.07;2.90;;;24.30;62.40;;;;;;6097748;28;84114;-54
2023/08/04 00:16:33;;;;;;;6.20;3.03;;;24.30;62.40;;;;;;6123588;28;81615;-54
2023/08/04 00:19:34;;;;;;;6.63;2.90;;;24.30;62.40;;;;;;6127628;28;81095;-51
2023/08/04 00:22:34;;;;;;;4.00;2.40;;;24.30;62.40;;;;;;6122248;28;82199;-54
2023/08/04 00:25:35;;;;;;;7.18;2.67;;;24.30;62.20;;;;;;6138592;28;80910;-55
2023/08/04 00:28:35;;;;;;;5.38;2.88;;;24.30;62.10;;;;;;6098469;28;82473;-50
2023/08/04 00:31:36;;;;;;;5.88;2.85;;;24.30;62.10;;;;;;6114959;28;80552;-65
2023/08/04 00:34:36;;;;;;;5.43;3.17;;;24.30;62.10;;;;;;6103568;28;80806;-65
2023/08/04 00:37:37;;;;;;;3.47;2.38;;;24.30;62.20;;;;;;6127677;28;82970;-64
2023/08/04 00:40:38;;;;;;;5.93;2.78;;;24.30;62.30;;;;;;6166764;28;80333;-64
2023/08/04 00:43:38;;;;;;;3.50;2.20;;;24.30;62.30;;;;;;6124512;28;82505;-61
2023/08/04 00:46:39;;;;;;;3.65;2.80;;;24.30;62.40;;;;;;6127536;28;83594;-65
2023/08/04 00:49:39;;;;;;;4.45;2.75;;;24.30;62.50;;;;;;6116828;28;81273;-47
2023/08/04 00:52:40;;;;;;;3.90;2.78;;;24.30;62.70;;;;;;6125654;28;80907;-47
2023/08/04 00:55:42;;;;;;;5.85;3.58;;;24.30;62.70;;;;;;6126786;28;80899;-48
2023/08/04 00:58:42;;;;;;;4.57;3.10;;;24.30;62.60;;;;;;6142429;28;81458;-51
2023/08/04 01:01:43;;;;;;;3.55;2.72;;;24.30;62.80;;;;;;6128205;28;83703;-47
2023/08/04 01:04:43;;;;;;;5.72;2.53;;;24.30;62.80;;;;;;6109372;28;81079;-49
2023/08/04 01:07:44;;;;;;;4.65;3.00;;;24.30;62.90;;;;;;6120155;28;82134;-48
2023/08/04 01:10:44;;;;;;;3.13;2.35;;;24.30;63.00;;;;;;6120052;28;83656;-50
2023/08/04 01:13:45;;;;;;;4.50;2.70;;;24.30;63.10;;;;;;6112034;28;84078;-46
2023/08/04 01:16:45;;;;;;;3.42;2.30;;;24.30;62.70;;;;;;6109855;28;80373;-49
2023/08/04 01:19:47;;;;;;;4.60;2.80;;;24.30;62.60;;;;;;6123108;28;81461;-48
2023/08/04 01:22:48;;;;;;;6.90;3.10;;;24.30;62.50;;;;;;6132284;28;80801;-47
2023/08/04 01:25:48;;;;;;;4.85;2.55;;;24.30;62.60;;;;;;6117030;28;80583;-46
2023/08/04 01:28:48;;;;;;;5.22;2.95;;;24.20;62.60;;;;;;6104806;28;81900;-66
2023/08/04 01:31:49;;;;;;;4.80;3.05;;;24.20;62.60;;;;;;6118646;28;84094;-66
2023/08/04 01:34:50;;;;;;;4.55;3.03;;;24.20;62.80;;;;;;6144054;28;86674;-67
2023/08/04 01:37:50;;;;;;;9.25;3.17;;;24.20;62.60;;;;;;6114807;28;81050;-66
2023/08/04 01:40:51;;;;;;;6.93;3.10;;;24.20;62.60;;;;;;6133447;28;81447;-65
2023/08/04 01:43:52;;;;;;;5.90;3.08;;;24.20;62.70;;;;;;6118823;28;82675;-68
2023/08/04 01:46:52;;;;;;;6.68;3.15;;;24.10;62.80;;;;;;6105518;28;81919;-47
2023/08/04 01:49:54;;;;;;;5.85;3.28;;;24.10;62.80;;;;;;6133840;28;80213;-46
2023/08/04 01:52:54;;;;;;;5.28;2.58;;;24.10;62.90;;;;;;6110614;28;81776;-45
2023/08/04 01:55:55;;;;;;;5.53;3.05;;;24.10;62.90;;;;;;6125586;28;83153;-49
2023/08/04 01:58:55;;;;;;;5.43;3.40;;;24.10;62.90;;;;;;6120232;28;83106;-46
2023/08/04 02:01:56;;;;;;;5.68;3.47;;;24.10;63.00;;;;;;6113725;28;83134;-47
2023/08/04 02:04:56;;;;;;;3.50;3.03;;;24.10;63.00;;;;;;6118068;28;80972;-48
2023/08/04 02:07:57;;;;;;;5.18;2.47;;;24.20;63.30;;;;;;6097580;28;82292;-47
2023/08/04 02:11:02;;;;;;;5.50;3.03;;;24.20;63.50;;;;;;6113225;28;83307;-50
2023/08/04 02:14:02;;;;;;;6.00;3.05;;;24.20;63.60;;;;;;6094391;28;81760;-47
2023/08/04 02:17:03;;;;;;;4.97;3.55;;;24.10;63.40;;;;;;6115670;28;80484;-50
2023/08/04 02:20:03;;;;;;;7.03;3.60;;;24.20;63.70;;;;;;6133781;28;81892;-46
2023/08/04 02:23:04;;;;;;;6.40;3.20;;;24.20;63.70;;;;;;6147585;28;81903;-64
2023/08/04 02:26:04;;;;;;;9.15;3.28;;;24.20;63.80;;;;;;6102614;28;80641;-66
2023/08/04 02:29:05;;;;;;;4.25;2.85;;;24.20;63.80;;;;;;6123126;28;85870;-66
2023/08/04 02:32:05;;;;;;;6.03;3.22;;;24.20;63.80;;;;;;6117888;28;84034;-67
2023/08/04 02:35:06;;;;;;;4.35;2.80;;;24.20;63.70;;;;;;6117623;28;81878;-68
2023/08/04 02:38:07;;;;;;;3.55;2.33;;;24.20;63.70;;;;;;6122830;28;80740;-67
2023/08/04 02:41:07;;;;;;;4.32;3.05;;;24.20;63.70;;;;;;6132129;28;86693;-59
2023/08/04 02:44:08;;;;;;;9.57;2.63;;;24.20;63.70;;;;;;6119344;28;80480;-62
2023/08/04 02:47:09;;;;;;;5.57;2.75;;;24.20;63.70;;;;;;6120426;28;80800;-62
2023/08/04 02:50:09;;;;;;;4.35;2.72;;;24.20;63.70;;;;;;6107863;28;82751;-61
2023/08/04 02:53:10;;;;;;;4.75;2.95;;;24.20;63.70;;;;;;6129980;28;81934;-60
2023/08/04 02:56:10;;;;;;;3.00;2.45;;;24.10;64.30;;;;;;6164682;28;82583;-62
2023/08/04 02:59:11;;;;;;;4.50;3.13;;;24.20;63.70;;;;;;6127289;28;80463;-63
2023/08/04 03:02:11;;;;;;;2.95;2.50;;;24.20;63.70;;;;;;6111867;28;81682;-62
2023/08/04 03:05:12;;;;;;;5.22;2.53;;;24.20;63.70;;;;;;6116958;28;83320;-61
2023/08/04 03:08:12;;;;;;;3.25;2.53;;;24.20;63.60;;;;;;6126970;28;80877;-60
2023/08/04 03:11:13;;;;;;;3.28;2.35;;;24.20;63.70;;;;;;6114844;28;81880;-60
2023/08/04 03:14:13;;;;;;;4.30;2.53;;;24.10;63.70;;;;;;6130396;28;80829;-61
2023/08/04 03:17:14;;;;;;;3.63;2.35;;;24.20;63.90;;;;;;6120747;28;80978;-68
2023/08/04 03:20:14;;;;;;;4.28;3.05;;;24.20;63.70;;;;;;6104569;28;82052;-68
2023/08/04 03:23:15;;;;;;;4.40;2.85;;;24.20;63.80;;;;;;6125278;28;80837;-69
2023/08/04 03:26:16;;;;;;;4.00;2.33;;;24.20;63.90;;;;;;6123042;28;81677;-69
2023/08/04 03:29:16;;;;;;;4.00;2.13;;;24.10;64.00;;;;;;6114858;28;80575;-69
2023/08/04 03:32:17;;;;;;;2.95;2.22;;;24.10;64.00;;;;;;6099373;28;82280;-68
2023/08/04 03:35:17;;;;;;;5.57;2.63;;;24.10;64.00;;;;;;6130616;28;80590;-47
2023/08/04 03:38:18;;;;;;;3.13;2.42;;;24.10;64.10;;;;;;6096435;28;82357;-46
2023/08/04 03:41:18;;;;;;;3.03;2.15;;;24.10;64.20;;;;;;6103799;28;82031;-46
2023/08/04 03:44:19;;;;;;;2.30;2.05;;;24.10;64.40;;;;;;6105720;28;80525;-46
2023/08/04 03:47:19;;;;;;;3.90;2.75;;;24.10;64.40;;;;;;6108103;28;81117;-48
2023/08/04 03:50:20;;;;;;;2.92;1.90;;;24.10;64.50;;;;;;6118691;28;83199;-50
2023/08/04 03:53:20;;;;;;;3.42;2.80;;;24.10;64.60;;;;;;6120219;28;80508;-62
2023/08/04 03:56:21;;;;;;;4.95;2.60;;;24.10;64.90;;;;;;6106380;28;81172;-62
2023/08/04 03:59:21;;;;;;;3.05;2.30;;;24.20;65.10;;;;;;6105899;28;82517;-62
2023/08/04 04:02:22;;;;;;;3.45;2.10;;;24.20;64.90;;;;;;6111385;28;80238;-61
2023/08/04 04:05:22;;;;;;;2.65;2.05;;;24.20;65.00;;;;;;6108523;28;82432;-62
2023/08/04 04:08:23;;;;;;;4.80;2.30;;;24.10;64.80;;;;;;6109207;28;81839;-62
2023/08/04 04:11:23;;;;;;;2.72;2.25;;;24.20;64.90;;;;;;6108780;28;81308;-62
2023/08/04 04:14:24;;;;;;;4.55;2.53;;;24.10;64.90;;;;;;6107808;28;81819;-63
2023/08/04 04:17:24;;;;;;;6.05;2.63;;;24.10;65.00;;;;;;6129591;28;80519;-60
2023/08/04 04:20:25;;;;;;;3.63;2.35;;;24.10;64.90;;;;;;6111827;28;82077;-61
2023/08/04 04:23:25;;;;;;;2.83;2.55;;;24.10;65.00;;;;;;6125820;28;81368;-61
2023/08/04 04:26:26;;;;;;;2.83;2.30;;;24.10;65.10;;;;;;6111546;28;81307;-61
2023/08/04 04:29:26;;;;;;;5.70;2.53;;;24.10;65.20;;;;;;6096333;28;80813;-61
2023/08/04 04:32:26;;;;;;;4.13;2.15;;;24.10;65.40;;;;;;6107085;28;80492;-50
2023/08/04 04:35:27;;;;;;;2.67;2.22;;;24.10;65.50;;;;;;6097363;28;83043;-54
2023/08/04 04:38:28;;;;;;;2.50;2.30;;;24.10;65.60;;;;;;6110154;28;81771;-54
2023/08/04 04:41:29;;;;;;;3.55;2.35;;;24.10;65.80;;;;;;6111183;28;80436;-55
2023/08/04 04:44:30;;;;;;;3.00;2.70;;;24.10;66.00;;;;;;6110361;28;80847;-51
2023/08/04 04:47:31;;;;;;;2.33;2.03;;;24.10;66.30;;;;;;6128926;28;80416;-53
2023/08/04 04:50:31;;;;;;;4.03;2.55;;;24.10;66.30;;;;;;6115605;28;80608;-61
2023/08/04 04:53:32;;;;;;;3.15;2.13;;;24.10;66.50;;;;;;6106492;28;81208;-62
2023/08/04 04:56:32;;;;;;;5.28;2.63;;;24.10;66.60;;;;;;6121034;28;83160;-61
2023/08/04 04:59:33;;;;;;;5.57;3.00;;;24.10;66.60;;;;;;6128778;28;81992;-62
2023/08/04 05:02:33;;;;;;;4.38;2.63;;;24.10;66.60;;;;;;6126274;28;81064;-62
2023/08/04 05:05:34;;;;;;;4.13;2.83;;;24.10;66.70;;;;;;6122469;28;80409;-62
2023/08/04 05:08:34;;;;;;;5.57;2.55;;;24.10;66.80;;;;;;6115531;28;80763;-63
2023/08/04 05:11:35;;;;;;;3.95;3.10;;;24.10;66.70;;;;;;6109405;28;81611;-63
2023/08/04 05:14:35;;;;;;;5.35;2.47;;;24.10;66.80;;;;;;6137644;28;81250;-62
2023/08/04 05:17:36;;;;;;;3.72;2.63;;;24.10;67.00;;;;;;6127678;28;80954;-62
2023/08/04 05:20:36;;;;;;;5.53;2.80;;;24.10;67.10;;;;;;6129357;28;80459;-63
2023/08/04 05:23:37;;;;;;;4.68;2.88;;;24.10;67.20;;;;;;6097121;28;82273;-62
2023/08/04 05:26:37;;;;;;;3.80;2.30;;;24.10;67.30;;;;;;6104898;28;81671;-70
2023/08/04 05:29:38;;;;;;;4.90;2.63;;;24.10;67.40;;;;;;6104423;28;80715;-70
2023/08/04 05:32:38;;;;;;;4.03;2.85;;;24.10;66.90;;;;;;6098091;28;81504;-70
2023/08/04 05:35:40;;;;;;;7.05;3.20;;;24.10;67.10;;;;;;6114071;28;80401;-70
2023/08/04 05:38:40;;;;;;;5.90;2.80;;;24.10;67.20;;;;;;6099037;28;81717;-69
2023/08/04 05:41:44;;;;;;;8.10;3.10;;;24.10;67.40;;;;;;6135317;28;81280;-68
2023/08/04 05:44:44;;;;;;;4.88;3.00;;;24.10;67.50;;;;;;6101301;28;80756;-60
2023/08/04 05:47:45;;;;;;;4.55;2.80;;;24.10;67.50;;;;;;6118769;28;82906;-62
2023/08/04 05:50:45;;;;;;;6.65;3.00;;;24.10;67.60;;;;;;6128675;28;80376;-62
2023/08/04 05:53:46;;;;;;;4.80;3.30;;;24.10;67.70;;;;;;6096929;28;80943;-61
2023/08/04 05:56:46;;;;;;;4.18;2.92;;;24.10;68.00;;;;;;6113640;28;80538;-61
2023/08/04 05:59:47;;;;;;;4.93;2.85;;;24.10;68.10;;;;;;6105778;28;80301;-63
2023/08/04 06:02:47;;;;;;;4.88;2.83;;;24.20;68.30;;;;;;6114054;28;80129;-62
2023/08/04 06:05:48;;;;;;;4.53;2.90;;;24.20;68.20;;;;;;6108642;28;81886;-61
2023/08/04 06:08:48;;;;;;;7.60;3.42;;;24.30;68.20;;;;;;6125837;28;80452;-63
2023/08/04 06:11:49;;;;;;;5.43;3.35;;;24.20;68.00;;;;;;6119954;28;80457;-63
2023/08/04 06:14:49;;;;;;;6.65;3.53;;;24.30;68.10;;;;;;6125963;28;82862;-62
2023/08/04 06:17:50;;;;;;;6.40;3.10;;;24.30;68.20;;;;;;6144175;28;82861;-62
2023/08/04 06:20:51;;;;;;;5.55;3.10;;;24.30;68.10;;;;;;6113110;28;82514;-52
2023/08/04 06:23:52;;;;;;;6.50;3.03;;;24.30;68.30;;;;;;6124200;28;80280;-53
2023/08/04 06:26:52;;;;;;;6.30;3.15;;;24.20;68.30;;;;;;6115753;28;82526;-51
2023/08/04 06:29:53;;;;;;;7.22;3.55;;;24.30;68.40;;;;;;6124119;28;80964;-57
2023/08/04 06:32:53;;;;;;;5.55;2.88;;;24.30;68.20;;;;;;6120103;28;80559;-55
2023/08/04 06:35:54;;;;;;;6.55;3.33;;;24.30;68.50;;;;;;6116291;28;81962;-52
2023/08/04 06:38:54;;;;;;;6.57;3.10;;;24.20;68.40;;;;;;6120013;28;82701;-50
2023/08/04 06:41:55;;;;;;;6.30;3.38;;;24.30;68.50;;;;;;6128618;28;81691;-47
2023/08/04 06:44:55;;;;;;;6.53;3.28;;;24.30;68.60;;;;;;6116970;28;80367;-50
2023/08/04 06:47:56;;;;;;;9.60;3.42;;;24.30;68.70;;;;;;6118859;28;81235;-47
2023/08/04 06:50:56;;;;;;;6.93;3.28;;;24.30;68.80;;;;;;6125762;28;81109;-48
2023/08/04 06:53:57;;;;;;;6.93;3.63;;;24.30;68.70;;;;;;6123650;28;80474;-49
2023/08/04 06:56:57;;;;;;;6.30;3.20;;;24.30;69.10;;;;;;6126021;28;82071;-62
2023/08/04 06:59:58;;;;;;;11.45;3.45;;;24.40;69.10;;;;;;6128579;28;80615;-63
2023/08/04 07:02:59;;;;;;;6.70;3.70;;;24.40;70.00;;;;;;6120240;28;81570;-64
2023/08/04 07:05:59;;;;;;;6.97;3.10;;;24.40;70.00;;;;;;6122075;28;81286;-62
2023/08/04 07:09:00;;;;;;;6.35;3.80;;;24.50;72.20;;;;;;6118900;28;80980;-62
2023/08/04 07:12:00;;;;;;;5.32;3.45;;;24.50;74.10;;;;;;6127943;28;81157;-63
2023/08/04 07:15:00;;;;;;;4.07;3.00;;;24.50;74.40;;;;;;6122532;28;82307;-62
2023/08/04 07:18:02;;;;;;;4.85;3.50;;;24.50;73.80;;;;;;6115959;28;80529;-53
2023/08/04 07:21:02;;;;;;;4.63;3.03;;;24.50;74.10;;;;;;6121291;28;80467;-49
2023/08/04 07:24:03;;;;;;;5.90;3.83;;;24.60;73.40;;;;;;6111074;28;80553;-52
2023/08/04 07:27:03;;;;;;;5.75;3.47;;;24.50;74.70;;;;;;6123061;28;80219;-52
2023/08/04 07:30:04;;;;;;;5.20;3.40;;;24.60;74.00;;;;;;6113090;28;81755;-54
2023/08/04 07:33:06;;;;;;;6.03;3.78;;;24.60;73.70;;;;;;6120902;28;81546;-53
2023/08/04 07:36:08;;;;;;;8.45;3.20;;;24.60;73.60;;;;;;6122027;28;84324;-52
2023/08/04 07:39:08;;;;;;;9.25;3.25;;;24.60;73.40;;;;;;6123501;28;84222;-49
2023/08/04 07:42:09;;;;;;;6.07;3.05;;;24.60;73.00;;;;;;6116450;28;80802;-48
2023/08/04 07:45:09;;;;;;;5.40;3.35;;;24.60;72.90;;;;;;6110184;28;82553;-49
2023/08/04 07:48:10;;;;;;;6.88;3.28;;;24.60;72.80;;;;;;6134156;28;81897;-50
2023/08/04 07:51:10;;;;;;;7.45;2.80;;;24.60;72.50;;;;;;6120503;28;81644;-49
2023/08/04 07:54:11;;;;;;;6.72;3.13;;;24.60;72.10;;;;;;6123560;28;80238;-61
2023/08/04 07:57:11;;;;;;;5.53;2.97;;;24.70;71.70;;;;;;6112721;28;82761;-61
2023/08/04 08:00:12;;;;;;;5.78;2.90;;;24.60;71.50;;;;;;6106620;28;81087;-62
2023/08/04 08:03:12;;;;;;;5.00;2.80;;;24.70;71.10;;;;;;6110334;28;83037;-62
2023/08/04 08:06:13;;;;;;;6.15;2.80;;;24.70;71.00;;;;;;6117370;28;80687;-60
2023/08/04 08:09:13;;;;;;;4.72;2.80;;;24.70;70.80;;;;;;6139305;28;80640;-64
2023/08/04 08:12:14;;;;;;;6.57;2.78;;;24.70;70.60;;;;;;6111738;28;81942;-63
2023/08/04 08:15:14;;;;;;;5.30;2.47;;;24.70;70.20;;;;;;6134988;28;80489;-67
2023/08/04 08:18:15;;;;;;;5.25;2.38;;;24.60;69.50;;;;;;6123370;28;81464;-67
2023/08/04 08:21:15;;;;;;;6.18;2.75;;;24.60;69.00;;;;;;6131798;28;82397;-67
2023/08/04 08:24:16;;;;;;;5.82;2.53;;;24.50;68.70;;;;;;6131626;28;81041;-67
2023/08/04 08:27:16;;;;;;;3.92;2.58;;;24.50;68.60;;;;;;6112126;28;82546;-67
2023/08/04 08:30:17;;;;;;;4.38;2.53;;;24.40;68.50;;;;;;6124795;28;80464;-67
2023/08/04 08:33:17;;;;;;;4.35;2.28;;;24.40;68.70;;;;;;6118306;28;82154;-67
2023/08/04 08:36:19;;;;;;;4.28;2.55;;;24.30;68.90;;;;;;6122518;28;81012;-67
2023/08/04 08:39:20;;;;;;;5.47;2.30;;;24.20;68.90;;;;;;6122893;28;80315;-67
2023/08/04 08:42:21;;;;;;;5.75;2.72;;;24.10;69.60;;;;;;6109407;28;82532;-66
2023/08/04 08:45:21;;;;;;;5.15;2.63;;;23.90;69.80;;;;;;6121513;28;81091;-68
2023/08/04 08:48:22;;;;;;;3.00;2.13;;;23.70;70.70;;;;;;6129750;28;82905;-57
2023/08/04 08:51:22;;;;;;;5.50;2.03;;;23.60;71.80;;;;;;6139784;28;83077;-56
2023/08/04 08:54:23;;;;;;;3.90;2.13;;;23.50;72.60;;;;;;6112078;28;81842;-54
2023/08/04 08:57:23;;;;;;;3.38;2.00;;;23.40;73.10;;;;;;6109276;28;81381;-55
2023/08/04 09:00:24;;;;;;;3.92;2.08;;;23.30;73.20;;;;;;6110127;28;80901;-57
2023/08/04 09:03:24;;;;;;;3.28;2.13;;;23.30;73.00;;;;;;6124387;28;81358;-57
2023/08/04 09:06:25;;;;;;;3.78;1.98;;;23.30;73.70;;;;;;6132552;28;83156;-55
2023/08/04 09:09:25;;;;;;;3.97;2.20;;;23.20;74.40;;;;;;6112437;28;82258;-54
2023/08/04 09:12:27;;;;;;;5.38;2.10;;;23.20;74.80;;;;;;6107920;28;81960;-55
2023/08/04 09:15:28;;;;;;;2.85;1.95;;;23.20;75.00;;;;;;6101987;28;81229;-57
2023/08/04 09:18:29;;;;;;;5.75;1.95;;;23.30;74.10;;;;;;6115524;28;80564;-55
2023/08/04 09:21:29;;;;;;;7.40;2.25;;;23.30;73.30;;;;;;6111024;28;80114;-55
2023/08/04 09:24:30;;;;;;;7.30;2.10;;;23.30;72.60;;;;;;6102421;28;82677;-65
2023/08/04 09:27:30;;;;;;;3.53;1.92;;;23.30;72.80;;;;;;6116066;28;81175;-64
2023/08/04 09:30:31;;;;;;;4.55;2.45;;;23.40;72.10;;;;;;6103454;28;81613;-64
2023/08/04 09:33:31;;;;;;;2.20;1.73;;;23.40;71.90;;;;;;6112955;28;80967;-64
2023/08/04 09:36:32;;;;;;;2.72;1.98;;;23.50;71.80;;;;;;6111605;28;80947;-64
2023/08/04 09:39:32;;;;;;;5.03;2.20;;;23.60;72.00;;;;;;6125581;28;82489;-66
2023/08/04 09:42:33;;;;;;;3.70;2.03;;;23.60;71.90;;;;;;6115313;28;81007;-65
2023/08/04 09:45:33;;;;;;;3.67;1.75;;;23.70;71.40;;;;;;6111557;28;82449;-67
2023/08/04 09:48:34;;;;;;;4.97;1.73;;;23.60;71.00;;;;;;6154526;28;82934;-67
2023/08/04 09:51:34;;;;;;;3.75;2.13;;;23.70;70.80;;;;;;6138328;28;80754;-66
2023/08/04 09:54:35;;;;;;;2.80;2.00;;;23.70;70.30;;;;;;6137391;28;81538;-67
2023/08/04 09:57:35;;;;;;;5.88;2.05;;;23.70;69.90;;;;;;6123872;28;82507;-66
2023/08/04 10:00:36;;;;;;;3.97;1.98;;;23.70;69.70;;;;;;6136258;28;80229;-56
2023/08/04 10:03:36;;;;;;;3.40;1.90;;;23.80;69.40;;;;;;6116756;28;80463;-53
2023/08/04 10:06:37;;;;;;;4.55;2.30;;;23.90;69.20;;;;;;6103221;28;81720;-57
2023/08/04 10:09:37;;;;;;;2.35;1.65;;;23.90;68.60;;;;;;6133810;28;80655;-57
2023/08/04 10:12:38;;;;;;;3.42;2.13;;;23.90;68.50;;;;;;6121662;28;82489;-57
2023/08/04 10:15:39;;;;;;;3.47;2.00;;;24.00;68.00;;;;;;6133364;28;81044;-54
2023/08/04 10:18:39;;;;;;;5.28;2.83;;;24.00;67.70;;;;;;6124562;28;82133;-52
2023/08/04 10:21:40;;;;;;;7.18;1.90;;;24.10;67.00;;;;;;6133719;28;81577;-56
2023/08/04 10:24:40;;;;;;;5.30;2.10;;;24.10;67.10;;;;;;6131408;28;80691;-53
2023/08/04 10:27:41;;;;;;;4.97;2.22;;;24.20;66.90;;;;;;6111022;28;81393;-49
2023/08/04 10:30:41;;;;;;;2.50;1.80;;;24.30;66.80;;;;;;6122431;28;80299;-56
2023/08/04 10:33:42;;;;;;;8.43;2.20;;;24.40;66.90;;;;;;6101876;28;80712;-55
2023/08/04 10:36:42;;;;;;;2.72;2.03;;;24.40;66.40;;;;;;6110751;28;80531;-57
2023/08/04 10:39:43;;;;;;;5.32;1.85;;;24.40;66.30;;;;;;6107155;28;85032;-54
2023/08/04 10:42:44;;;;;;;2.85;1.85;;;24.50;65.90;;;;;;6109886;28;80947;-58
2023/08/04 10:45:44;;;;;;;3.95;1.98;;;24.40;65.60;;;;;;6126329;28;80386;-56
2023/08/04 10:48:45;;;;;;;5.57;1.83;;;24.50;65.50;;;;;;6132785;28;81710;-53
2023/08/04 10:51:46;;;;;;;4.00;1.90;;;24.50;64.80;;;;;;6121673;28;81702;-53
2023/08/04 10:54:46;;;;;;;3.00;1.75;;;24.50;64.10;;;;;;6108560;28;80399;-57
2023/08/04 10:57:47;;;;;;;2.75;1.95;;;24.60;63.90;;;;;;6111554;28;82167;-65
2023/08/04 11:00:47;;;;;;;3.65;1.83;;;24.60;63.40;;;;;;6117139;28;80592;-64
2023/08/04 11:03:50;;;;;;;6.97;2.08;;;24.60;63.30;;;;;;6130118;28;81548;-63
2023/08/04 11:06:51;;;;;;;8.88;1.77;;;24.60;62.60;;;;;;6125531;28;80124;-63
2023/08/04 11:09:52;;;;;;;3.85;1.98;;;24.70;63.00;;;;;;6109788;28;81561;-64
2023/08/04 11:12:53;;;;;;;3.08;1.50;;;24.70;62.60;;;;;;6129571;28;81007;-63
2023/08/04 11:15:53;;;;;;;3.08;1.83;;;24.80;62.50;;;;;;6133812;28;82154;-64
2023/08/04 11:18:54;;;;;;;3.92;1.88;;;24.70;61.70;;;;;;6150760;28;81611;-63
2023/08/04 11:21:55;;;;;;;5.45;1.85;;;24.80;61.80;;;;;;6141265;28;81760;-64
2023/08/04 11:24:55;;;;;;;3.88;2.10;;;24.90;62.10;;;;;;6129205;28;80603;-65
2023/08/04 11:27:56;;;;;;;2.80;1.42;;;24.90;62.00;;;;;;6126573;28;80322;-65
2023/08/04 11:30:56;;;;;;;4.68;2.22;;;25.00;62.10;;;;;;6119285;28;82082;-68
2023/08/04 11:33:57;;;;;;;6.00;2.10;;;25.00;62.20;;;;;;6126668;28;82513;-63
2023/08/04 11:36:58;;;;;;;3.65;2.30;;;25.00;62.30;;;;;;6116068;28;81349;-64
2023/08/04 11:39:58;;;;;;;2.17;1.73;;;25.00;62.40;;;;;;6130194;28;80458;-62
2023/08/04 11:42:59;;;;;;;12.40;2.33;;;25.00;62.40;;;;;;6114217;28;80557;-66
2023/08/04 11:46:00;;;;;;;4.28;2.17;;;25.00;62.60;;;;;;6132977;28;80400;-64
2023/08/04 11:49:01;;;;;;;3.95;1.73;;;25.10;62.50;;;;;;6111440;28;81431;-65
2023/08/04 11:52:05;;;;;;;3.33;1.95;;;25.10;62.60;;;;;;6112312;28;81970;-50
2023/08/04 11:55:05;;;;;;;4.95;1.63;;;25.10;62.50;;;;;;6125488;28;81085;-47
2023/08/04 11:58:06;;;;;;;5.28;2.20;;;25.10;62.50;;;;;;6112655;28;82213;-49
2023/08/04 12:01:06;;;;;;;5.97;1.98;;;25.10;62.50;;;;;;6123192;28;80595;-49
2023/08/04 12:04:07;;;;;;;7.10;2.78;;;25.10;63.20;;;;;;6114045;28;82404;-50
2023/08/04 12:07:07;;;;;;;3.67;2.00;;;25.10;61.80;;;;;;6119842;28;80690;-53
2023/08/04 12:10:08;;;;;;;3.42;2.05;;;25.10;61.90;;;;;;6122241;28;82813;-47
2023/08/04 12:13:09;;;;;;;5.75;1.77;;;25.10;61.50;;;;;;6113235;28;81145;-50
2023/08/04 12:16:09;;;;;;;7.97;2.35;;;25.10;61.10;;;;;;6130274;28;81727;-49
2023/08/04 12:19:10;;;;;;;7.22;2.63;;;25.10;60.80;;;;;;6113668;28;80818;-52
2023/08/04 12:22:11;;;;;;;3.90;1.55;;;25.10;60.50;;;;;;6113468;28;80919;-48
2023/08/04 12:25:11;;;;;;;4.10;2.15;;;25.10;59.80;;;;;;6115257;28;82302;-54
2023/08/04 12:28:12;;;;;;;4.15;2.08;;;25.00;59.40;;;;;;6123744;28;80112;-50
2023/08/04 12:31:12;;;;;;;2.55;1.50;;;25.10;59.60;;;;;;6122580;28;81229;-49
2023/08/04 12:34:13;;;;;;;3.10;1.90;;;25.10;58.70;;;;;;6113341;28;82616;-49
2023/08/04 12:37:13;;;;;;;3.28;1.55;;;25.10;59.10;;;;;;6118259;28;83781;-53
2023/08/04 12:40:14;;;;;;;3.08;1.90;;;25.10;59.10;;;;;;6116774;28;81162;-47
2023/08/04 12:43:15;;;;;;;5.38;2.13;;;25.10;59.00;;;;;;6122914;28;80971;-50
2023/08/04 12:46:15;;;;;;;3.50;1.70;;;25.10;59.00;;;;;;6098003;28;80716;-66
2023/08/04 12:49:16;;;;;;;3.97;1.92;;;25.10;58.80;;;;;;6110515;28;83025;-66
2023/08/04 12:52:16;;;;;;;4.63;1.80;;;25.10;58.90;;;;;;6119335;28;80402;-67
2023/08/04 12:55:17;;;;;;;4.95;2.10;;;25.10;58.70;;;;;;6117125;28;80944;-66
2023/08/04 12:58:18;;;;;;;2.55;2.05;;;25.10;59.20;;;;;;6130562;28;82377;-66
2023/08/04 13:01:18;;;;;;;5.82;1.95;;;25.10;59.30;;;;;;6130662;28;82190;-66
2023/08/04 13:04:19;;;;;;;6.20;2.15;;;25.20;59.30;;;;;;6119455;28;81444;-67
2023/08/04 13:07:19;;;;;;;4.05;1.75;;;25.20;59.30;;;;;;6105315;28;82075;-65
2023/08/04 13:10:20;;;;;;;4.57;1.83;;;25.10;58.90;;;;;;6132655;28;81093;-66
2023/08/04 13:13:20;;;;;;;5.65;2.05;;;25.10;58.80;;;;;;6126148;28;83627;-65
2023/08/04 13:16:20;;;;;;;5.35;2.40;;;25.20;58.80;;;;;;6098868;28;81315;-66
2023/08/04 13:19:21;;;;;;;5.20;2.60;;;25.20;58.70;;;;;;6118821;28;80926;-69
2023/08/04 13:22:22;;;;;;;5.10;2.38;;;25.20;58.80;;;;;;6108278;28;82558;-67
2023/08/04 13:25:22;;;;;;;3.80;2.05;;;25.20;58.90;;;;;;6108534;28;80695;-50
2023/08/04 13:28:23;;;;;;;5.82;2.17;;;25.20;58.90;;;;;;6103440;28;82276;-49
2023/08/04 13:31:23;;;;;;;3.08;1.70;;;25.20;58.90;;;;;;6109462;28;80549;-51
2023/08/04 13:34:24;;;;;;;4.10;1.95;;;25.20;59.00;;;;;;6120282;28;81279;-52
2023/08/04 13:37:24;;;;;;;4.95;2.03;;;25.30;59.00;;;;;;6108847;28;82531;-47
2023/08/04 13:40:25;;;;;;;2.88;1.60;;;25.30;59.20;;;;;;6118228;28;87719;-53
2023/08/04 13:43:26;;;;;;;5.93;2.00;;;25.30;59.20;;;;;;6111928;28;82674;-67
2023/08/04 13:46:26;;;;;;;3.63;2.10;;;25.30;59.30;;;;;;6120719;28;80322;-67
2023/08/04 13:49:27;;;;;;;2.40;1.63;;;25.30;59.20;;;;;;6121241;28;81904;-69
2023/08/04 13:52:27;;;;;;;3.38;1.83;;;25.30;59.30;;;;;;6131801;28;80945;-67
2023/08/04 13:55:28;;;;;;;7.40;2.53;;;25.30;59.40;;;;;;6130858;28;79989;-70
2023/08/04 13:58:28;;;;;;;8.02;2.60;;;25.30;59.50;;;;;;6123491;28;82420;-69
2023/08/04 14:01:29;;;;;;;9.45;2.33;;;25.30;59.60;;;;;;6141690;28;80858;-68
2023/08/04 14:04:29;;;;;;;4.18;1.80;;;25.30;59.60;;;;;;6095289;28;81829;-69
2023/08/04 14:07:30;;;;;;;11.90;2.53;;;25.30;59.70;;;;;;6107199;28;80429;-69
2023/08/04 14:10:30;;;;;;;8.85;2.50;;;25.30;59.90;;;;;;6109254;28;80578;-68
2023/08/04 14:13:31;;;;;;;3.42;2.00;;;25.30;60.00;;;;;;6114653;28;81818;-69
2023/08/04 14:16:32;;;;;;;6.55;2.28;;;25.30;60.00;;;;;;6110653;28;80766;-68
2023/08/04 14:19:32;;;;;;;3.05;2.15;;;25.30;59.90;;;;;;6118140;28;80141;-69
2023/08/04 14:22:33;;;;;;;4.88;2.10;;;25.30;59.80;;;;;;6131051;28;80744;-68
2023/08/04 14:25:33;;;;;;;2.67;2.00;;;25.30;59.80;;;;;;6117736;28;83746;-68
2023/08/04 14:28:34;;;;;;;4.97;2.40;;;25.30;59.80;;;;;;6130735;28;80303;-69
2023/08/04 14:31:34;;;;;;;5.38;2.85;;;25.30;59.90;;;;;;6114072;28;82723;-68
2023/08/04 14:34:36;;;;;;;4.25;1.88;;;25.30;59.60;;;;;;6125621;28;81250;-68
2023/08/04 14:37:37;;;;;;;3.78;2.42;;;25.20;59.80;;;;;;6135767;28;80585;-69
2023/08/04 14:40:37;;;;;;;3.03;2.35;;;25.30;59.80;;;;;;6119629;28;80644;-66
2023/08/04 14:43:39;;;;;;;2.72;2.10;;;25.30;59.80;;;;;;6127357;28;81549;-66
2023/08/04 14:46:42;;;;;;;4.10;2.08;;;25.30;59.90;;;;;;6122762;28;81484;-68
2023/08/04 14:49:42;;;;;;;4.97;2.22;;;25.30;60.00;;;;;;6141981;28;80342;-67
2023/08/04 14:52:43;;;;;;;4.38;2.38;;;25.30;60.20;;;;;;6117895;28;81582;-68
2023/08/04 14:55:43;;;;;;;8.52;2.65;;;25.30;60.10;;;;;;6115717;28;80783;-66
2023/08/04 14:58:44;;;;;;;4.45;2.17;;;25.30;60.20;;;;;;6123634;28;81685;-65
2023/08/04 15:01:44;;;;;;;3.53;1.90;;;25.30;60.40;;;;;;6116322;28;83026;-67
2023/08/04 15:04:45;;;;;;;5.28;2.00;;;25.30;60.40;;;;;;6128054;28;86101;-65
2023/08/04 15:07:45;;;;;;;7.50;2.40;;;25.30;60.30;;;;;;6128870;28;81101;-65
2023/08/04 15:10:46;;;;;;;14.15;3.33;;;25.30;60.30;;;;;;6127307;28;80478;-64
2023/08/04 15:13:46;;;;;;;14.07;3.22;;;25.30;60.40;;;;;;6119054;28;80676;-65
2023/08/04 15:16:47;;;;;;;7.30;2.28;;;25.30;60.60;;;;;;6125178;28;80429;-68
2023/08/04 15:19:48;;;;;;;7.80;2.25;;;25.20;60.30;;;;;;6124078;28;80923;-68
2023/08/04 15:22:50;;;;;;;9.10;2.33;;;25.20;60.20;;;;;;6116118;28;81824;-67
2023/08/04 15:25:50;;;;;;;8.38;2.00;;;25.20;60.40;;;;;;6109792;28;81773;-66
2023/08/04 15:28:51;;;;;;;5.95;2.65;;;25.20;60.30;;;;;;6106121;28;82689;-66
2023/08/04 15:31:52;;;;;;;3.83;1.80;;;25.20;60.30;;;;;;6115258;28;81086;-66
2023/08/04 15:34:52;;;;;;;2.92;1.88;;;25.20;60.40;;;;;;6112562;28;80625;-68
2023/08/04 15:37:53;;;;;;;7.97;2.30;;;25.20;60.30;;;;;;6127194;28;80460;-67